sensor_id;sensor_type;location;lat;lon;timestamp;P1;durP1;ratioP1;P2;durP2;ratioP2
19554;SDS011;9924;50.828;6.440;2024-01-15T00:02:12;33.83;;;12.97;;
19554;SDS011;9924;50.828;6.440;2024-01-15T00:04:38;29.43;;;11.83;;
19554;SDS011;9924;50.828;6.440;2024-01-15T00:07:04;34.87;;;13.20;;
19554;SDS011;9924;50.828;6.440;2024-01-15T00:09:33;33.60;;;12.37;;
19554;SDS011;9924;50.828;6.440;2024-01-15T00:11:59;32.00;;;11.83;;
19554;SDS011;9924;50.828;6.440;2024-01-15T00:14:26;34.07;;;12.43;;
19554;SDS011;9924;50.828;6.440;2024-01-15T00:16:53;31.27;;;11.97;;
19554;SDS011;9924;50.828;6.440;2024-01-15T00:19:23;33.53;;;12.13;;
19554;SDS011;9924;50.828;6.440;2024-01-15T00:21:49;31.57;;;12.77;;
19554;SDS011;9924;50.828;6.440;2024-01-15T00:24:14;27.07;;;11.13;;
19554;SDS011;9924;50.828;6.440;2024-01-15T00:26:40;35.80;;;11.83;;
19554;SDS011;9924;50.828;6.440;2024-01-15T00:29:06;35.97;;;11.67;;
19554;SDS011;9924;50.828;6.440;2024-01-15T00:31:33;29.07;;;11.63;;
19554;SDS011;9924;50.828;6.440;2024-01-15T00:33:58;40.00;;;13.27;;
19554;SDS011;9924;50.828;6.440;2024-01-15T00:36:24;32.43;;;10.67;;
19554;SDS011;9924;50.828;6.440;2024-01-15T00:38:50;36.07;;;11.80;;
19554;SDS011;9924;50.828;6.440;2024-01-15T00:41:16;29.10;;;11.33;;
19554;SDS011;9924;50.828;6.440;2024-01-15T00:43:43;33.23;;;11.80;;
19554;SDS011;9924;50.828;6.440;2024-01-15T00:46:10;33.47;;;12.23;;
19554;SDS011;9924;50.828;6.440;2024-01-15T00:48:36;30.13;;;11.33;;
19554;SDS011;9924;50.828;6.440;2024-01-15T00:51:02;30.43;;;11.23;;
19554;SDS011;9924;50.828;6.440;2024-01-15T00:53:28;30.20;;;10.57;;
19554;SDS011;9924;50.828;6.440;2024-01-15T00:55:54;29.40;;;11.07;;
19554;SDS011;9924;50.828;6.440;2024-01-15T00:58:20;35.43;;;12.23;;
19554;SDS011;9924;50.828;6.440;2024-01-15T01:00:45;30.83;;;11.97;;
19554;SDS011;9924;50.828;6.440;2024-01-15T01:03:11;39.87;;;12.90;;
19554;SDS011;9924;50.828;6.440;2024-01-15T01:05:37;29.70;;;10.80;;
19554;SDS011;9924;50.828;6.440;2024-01-15T01:08:03;32.83;;;10.80;;
19554;SDS011;9924;50.828;6.440;2024-01-15T01:10:29;35.33;;;11.37;;
19554;SDS011;9924;50.828;6.440;2024-01-15T01:12:54;28.50;;;10.40;;
19554;SDS011;9924;50.828;6.440;2024-01-15T01:15:20;32.30;;;11.47;;
19554;SDS011;9924;50.828;6.440;2024-01-15T01:17:46;33.10;;;12.47;;
19554;SDS011;9924;50.828;6.440;2024-01-15T01:20:12;32.07;;;12.00;;
19554;SDS011;9924;50.828;6.440;2024-01-15T01:22:37;33.40;;;12.00;;
19554;SDS011;9924;50.828;6.440;2024-01-15T01:25:04;33.80;;;12.47;;
19554;SDS011;9924;50.828;6.440;2024-01-15T01:27:30;29.27;;;10.77;;
19554;SDS011;9924;50.828;6.440;2024-01-15T01:29:55;35.33;;;12.27;;
19554;SDS011;9924;50.828;6.440;2024-01-15T01:32:21;41.53;;;13.27;;
19554;SDS011;9924;50.828;6.440;2024-01-15T01:34:46;38.30;;;13.20;;
19554;SDS011;9924;50.828;6.440;2024-01-15T01:37:12;37.47;;;13.37;;
19554;SDS011;9924;50.828;6.440;2024-01-15T01:39:38;36.77;;;13.33;;
19554;SDS011;9924;50.828;6.440;2024-01-15T01:42:04;37.40;;;13.50;;
19554;SDS011;9924;50.828;6.440;2024-01-15T01:44:30;37.50;;;14.00;;
19554;SDS011;9924;50.828;6.440;2024-01-15T01:46:57;41.83;;;14.07;;
19554;SDS011;9924;50.828;6.440;2024-01-15T01:49:24;38.40;;;12.97;;
19554;SDS011;9924;50.828;6.440;2024-01-15T01:51:51;38.27;;;13.37;;
19554;SDS011;9924;50.828;6.440;2024-01-15T01:54:16;38.43;;;13.17;;
19554;SDS011;9924;50.828;6.440;2024-01-15T01:56:43;40.30;;;13.40;;
19554;SDS011;9924;50.828;6.440;2024-01-15T01:59:09;42.27;;;14.77;;
19554;SDS011;9924;50.828;6.440;2024-01-15T02:01:36;33.73;;;13.37;;
19554;SDS011;9924;50.828;6.440;2024-01-15T02:04:02;36.53;;;13.37;;
19554;SDS011;9924;50.828;6.440;2024-01-15T02:06:29;39.50;;;13.70;;
19554;SDS011;9924;50.828;6.440;2024-01-15T02:08:55;35.83;;;13.13;;
19554;SDS011;9924;50.828;6.440;2024-01-15T02:11:21;40.20;;;15.13;;
19554;SDS011;9924;50.828;6.440;2024-01-15T02:13:46;40.60;;;14.03;;
19554;SDS011;9924;50.828;6.440;2024-01-15T02:16:13;42.03;;;15.60;;
19554;SDS011;9924;50.828;6.440;2024-01-15T02:18:41;46.27;;;16.77;;
19554;SDS011;9924;50.828;6.440;2024-01-15T02:21:07;41.07;;;14.97;;
19554;SDS011;9924;50.828;6.440;2024-01-15T02:23:33;44.23;;;15.60;;
19554;SDS011;9924;50.828;6.440;2024-01-15T02:25:59;41.37;;;15.47;;
19554;SDS011;9924;50.828;6.440;2024-01-15T02:28:26;43.53;;;15.83;;
19554;SDS011;9924;50.828;6.440;2024-01-15T02:30:52;35.77;;;15.30;;
19554;SDS011;9924;50.828;6.440;2024-01-15T02:33:17;40.27;;;15.03;;
19554;SDS011;9924;50.828;6.440;2024-01-15T02:35:43;42.17;;;16.13;;
19554;SDS011;9924;50.828;6.440;2024-01-15T02:38:09;44.47;;;15.93;;
19554;SDS011;9924;50.828;6.440;2024-01-15T02:40:34;41.77;;;15.87;;
19554;SDS011;9924;50.828;6.440;2024-01-15T02:43:00;53.47;;;16.83;;
19554;SDS011;9924;50.828;6.440;2024-01-15T02:45:26;50.30;;;17.13;;
19554;SDS011;9924;50.828;6.440;2024-01-15T02:47:52;45.30;;;18.13;;
19554;SDS011;9924;50.828;6.440;2024-01-15T02:50:18;39.53;;;16.87;;
19554;SDS011;9924;50.828;6.440;2024-01-15T02:52:43;50.67;;;17.90;;
19554;SDS011;9924;50.828;6.440;2024-01-15T02:55:09;51.00;;;17.27;;
19554;SDS011;9924;50.828;6.440;2024-01-15T02:57:35;48.17;;;18.83;;
19554;SDS011;9924;50.828;6.440;2024-01-15T03:00:00;50.77;;;17.83;;
19554;SDS011;9924;50.828;6.440;2024-01-15T03:02:27;46.63;;;16.77;;
19554;SDS011;9924;50.828;6.440;2024-01-15T03:04:53;45.87;;;16.73;;
19554;SDS011;9924;50.828;6.440;2024-01-15T03:07:19;43.73;;;17.17;;
19554;SDS011;9924;50.828;6.440;2024-01-15T03:09:44;43.73;;;17.33;;
19554;SDS011;9924;50.828;6.440;2024-01-15T03:12:10;45.30;;;17.07;;
19554;SDS011;9924;50.828;6.440;2024-01-15T03:14:36;46.37;;;18.67;;
19554;SDS011;9924;50.828;6.440;2024-01-15T03:17:02;52.40;;;16.87;;
19554;SDS011;9924;50.828;6.440;2024-01-15T03:19:27;51.87;;;18.67;;
19554;SDS011;9924;50.828;6.440;2024-01-15T03:21:53;48.77;;;17.47;;
19554;SDS011;9924;50.828;6.440;2024-01-15T03:24:20;46.63;;;17.47;;
19554;SDS011;9924;50.828;6.440;2024-01-15T03:26:45;47.00;;;17.83;;
19554;SDS011;9924;50.828;6.440;2024-01-15T03:29:11;47.30;;;16.83;;
19554;SDS011;9924;50.828;6.440;2024-01-15T03:31:36;43.73;;;17.73;;
19554;SDS011;9924;50.828;6.440;2024-01-15T03:34:02;44.23;;;16.50;;
19554;SDS011;9924;50.828;6.440;2024-01-15T03:36:31;44.23;;;15.30;;
19554;SDS011;9924;50.828;6.440;2024-01-15T03:38:57;44.70;;;16.00;;
19554;SDS011;9924;50.828;6.440;2024-01-15T03:41:22;40.27;;;14.97;;
19554;SDS011;9924;50.828;6.440;2024-01-15T03:43:48;38.17;;;16.47;;
19554;SDS011;9924;50.828;6.440;2024-01-15T03:46:13;37.10;;;14.77;;
19554;SDS011;9924;50.828;6.440;2024-01-15T03:48:39;39.17;;;13.77;;
19554;SDS011;9924;50.828;6.440;2024-01-15T03:51:04;30.40;;;14.10;;
19554;SDS011;9924;50.828;6.440;2024-01-15T03:53:30;32.47;;;12.93;;
19554;SDS011;9924;50.828;6.440;2024-01-15T03:55:56;32.37;;;12.57;;
19554;SDS011;9924;50.828;6.440;2024-01-15T03:58:21;36.10;;;12.37;;
19554;SDS011;9924;50.828;6.440;2024-01-15T04:00:47;36.57;;;13.93;;
19554;SDS011;9924;50.828;6.440;2024-01-15T04:03:13;33.57;;;13.00;;
19554;SDS011;9924;50.828;6.440;2024-01-15T04:05:38;32.87;;;13.07;;
19554;SDS011;9924;50.828;6.440;2024-01-15T04:08:04;35.70;;;13.10;;
19554;SDS011;9924;50.828;6.440;2024-01-15T04:10:30;40.00;;;14.53;;
19554;SDS011;9924;50.828;6.440;2024-01-15T04:12:56;33.33;;;12.93;;
19554;SDS011;9924;50.828;6.440;2024-01-15T04:15:22;32.53;;;13.40;;
19554;SDS011;9924;50.828;6.440;2024-01-15T04:17:47;36.37;;;13.40;;
19554;SDS011;9924;50.828;6.440;2024-01-15T04:20:13;32.00;;;13.03;;
19554;SDS011;9924;50.828;6.440;2024-01-15T04:22:39;29.07;;;13.63;;
19554;SDS011;9924;50.828;6.440;2024-01-15T04:25:04;34.10;;;13.80;;
19554;SDS011;9924;50.828;6.440;2024-01-15T04:27:30;32.30;;;13.20;;
19554;SDS011;9924;50.828;6.440;2024-01-15T04:29:56;36.63;;;14.60;;
19554;SDS011;9924;50.828;6.440;2024-01-15T04:32:22;36.03;;;14.93;;
19554;SDS011;9924;50.828;6.440;2024-01-15T04:34:47;34.63;;;13.63;;
19554;SDS011;9924;50.828;6.440;2024-01-15T04:37:13;33.23;;;14.23;;
19554;SDS011;9924;50.828;6.440;2024-01-15T04:39:39;35.40;;;12.73;;
19554;SDS011;9924;50.828;6.440;2024-01-15T04:42:04;27.20;;;12.30;;
19554;SDS011;9924;50.828;6.440;2024-01-15T04:44:30;32.30;;;12.77;;
19554;SDS011;9924;50.828;6.440;2024-01-15T04:46:56;27.93;;;11.77;;
19554;SDS011;9924;50.828;6.440;2024-01-15T04:49:21;25.13;;;11.27;;
19554;SDS011;9924;50.828;6.440;2024-01-15T04:51:47;23.60;;;10.90;;
19554;SDS011;9924;50.828;6.440;2024-01-15T04:54:13;28.33;;;11.90;;
19554;SDS011;9924;50.828;6.440;2024-01-15T04:56:42;25.97;;;11.27;;
19554;SDS011;9924;50.828;6.440;2024-01-15T04:59:09;32.70;;;12.13;;
19554;SDS011;9924;50.828;6.440;2024-01-15T05:01:35;24.90;;;11.90;;
19554;SDS011;9924;50.828;6.440;2024-01-15T05:04:00;31.73;;;13.50;;
19554;SDS011;9924;50.828;6.440;2024-01-15T05:06:26;37.23;;;13.60;;
19554;SDS011;9924;50.828;6.440;2024-01-15T05:08:52;28.80;;;13.27;;
19554;SDS011;9924;50.828;6.440;2024-01-15T05:11:18;33.30;;;13.53;;
19554;SDS011;9924;50.828;6.440;2024-01-15T05:13:43;34.60;;;14.27;;
19554;SDS011;9924;50.828;6.440;2024-01-15T05:16:09;31.23;;;13.17;;
19554;SDS011;9924;50.828;6.440;2024-01-15T05:18:34;36.67;;;14.73;;
19554;SDS011;9924;50.828;6.440;2024-01-15T05:21:02;35.30;;;15.33;;
19554;SDS011;9924;50.828;6.440;2024-01-15T05:23:28;33.57;;;14.47;;
19554;SDS011;9924;50.828;6.440;2024-01-15T05:25:54;35.53;;;14.80;;
19554;SDS011;9924;50.828;6.440;2024-01-15T05:28:19;40.67;;;15.13;;
19554;SDS011;9924;50.828;6.440;2024-01-15T05:30:45;34.27;;;15.10;;
19554;SDS011;9924;50.828;6.440;2024-01-15T05:33:11;29.57;;;14.27;;
19554;SDS011;9924;50.828;6.440;2024-01-15T05:35:37;33.30;;;15.07;;
19554;SDS011;9924;50.828;6.440;2024-01-15T05:38:03;34.67;;;15.00;;
19554;SDS011;9924;50.828;6.440;2024-01-15T05:40:28;36.30;;;14.73;;
19554;SDS011;9924;50.828;6.440;2024-01-15T05:42:54;32.57;;;14.60;;
19554;SDS011;9924;50.828;6.440;2024-01-15T05:45:19;32.17;;;14.70;;
19554;SDS011;9924;50.828;6.440;2024-01-15T05:47:45;39.00;;;15.17;;
19554;SDS011;9924;50.828;6.440;2024-01-15T05:50:11;29.00;;;14.13;;
19554;SDS011;9924;50.828;6.440;2024-01-15T05:52:37;30.77;;;13.67;;
19554;SDS011;9924;50.828;6.440;2024-01-15T05:55:03;32.13;;;13.60;;
19554;SDS011;9924;50.828;6.440;2024-01-15T05:57:29;30.27;;;13.27;;
19554;SDS011;9924;50.828;6.440;2024-01-15T05:59:55;34.80;;;14.60;;
19554;SDS011;9924;50.828;6.440;2024-01-15T06:02:21;66.23;;;21.77;;
19554;SDS011;9924;50.828;6.440;2024-01-15T06:04:47;46.50;;;17.37;;
19554;SDS011;9924;50.828;6.440;2024-01-15T06:07:12;38.73;;;15.53;;
19554;SDS011;9924;50.828;6.440;2024-01-15T06:09:38;29.63;;;13.23;;
19554;SDS011;9924;50.828;6.440;2024-01-15T06:12:04;27.67;;;12.30;;
19554;SDS011;9924;50.828;6.440;2024-01-15T06:14:30;25.53;;;12.50;;
19554;SDS011;9924;50.828;6.440;2024-01-15T06:16:56;28.80;;;12.43;;
19554;SDS011;9924;50.828;6.440;2024-01-15T06:19:22;22.70;;;11.83;;
19554;SDS011;9924;50.828;6.440;2024-01-15T06:21:47;26.13;;;11.37;;
19554;SDS011;9924;50.828;6.440;2024-01-15T06:24:13;24.97;;;11.07;;
19554;SDS011;9924;50.828;6.440;2024-01-15T06:26:40;24.90;;;11.20;;
19554;SDS011;9924;50.828;6.440;2024-01-15T06:29:05;26.90;;;11.17;;
19554;SDS011;9924;50.828;6.440;2024-01-15T06:31:31;31.67;;;11.30;;
19554;SDS011;9924;50.828;6.440;2024-01-15T06:33:56;24.27;;;11.77;;
19554;SDS011;9924;50.828;6.440;2024-01-15T06:36:23;29.50;;;12.30;;
19554;SDS011;9924;50.828;6.440;2024-01-15T06:38:48;32.33;;;12.70;;
19554;SDS011;9924;50.828;6.440;2024-01-15T06:41:14;31.33;;;12.47;;
19554;SDS011;9924;50.828;6.440;2024-01-15T06:43:39;30.80;;;12.87;;
19554;SDS011;9924;50.828;6.440;2024-01-15T06:46:05;30.07;;;12.73;;
19554;SDS011;9924;50.828;6.440;2024-01-15T06:48:31;31.47;;;12.73;;
19554;SDS011;9924;50.828;6.440;2024-01-15T06:50:56;25.17;;;12.43;;
19554;SDS011;9924;50.828;6.440;2024-01-15T06:53:22;33.40;;;13.70;;
19554;SDS011;9924;50.828;6.440;2024-01-15T06:55:48;30.63;;;12.90;;
19554;SDS011;9924;50.828;6.440;2024-01-15T06:58:14;32.57;;;14.07;;
19554;SDS011;9924;50.828;6.440;2024-01-15T07:00:40;30.43;;;13.77;;
19554;SDS011;9924;50.828;6.440;2024-01-15T07:03:05;28.50;;;12.90;;
19554;SDS011;9924;50.828;6.440;2024-01-15T07:05:32;31.43;;;13.70;;
19554;SDS011;9924;50.828;6.440;2024-01-15T07:07:58;30.67;;;13.27;;
19554;SDS011;9924;50.828;6.440;2024-01-15T07:10:23;27.77;;;11.87;;
19554;SDS011;9924;50.828;6.440;2024-01-15T07:12:49;33.63;;;13.40;;
19554;SDS011;9924;50.828;6.440;2024-01-15T07:15:15;30.00;;;13.67;;
19554;SDS011;9924;50.828;6.440;2024-01-15T07:17:41;29.90;;;12.80;;
19554;SDS011;9924;50.828;6.440;2024-01-15T07:20:07;27.43;;;12.47;;
19554;SDS011;9924;50.828;6.440;2024-01-15T07:22:35;28.77;;;12.97;;
19554;SDS011;9924;50.828;6.440;2024-01-15T07:25:01;29.87;;;13.37;;
19554;SDS011;9924;50.828;6.440;2024-01-15T07:27:27;34.13;;;13.97;;
19554;SDS011;9924;50.828;6.440;2024-01-15T07:29:52;31.07;;;13.40;;
19554;SDS011;9924;50.828;6.440;2024-01-15T07:32:18;30.67;;;13.53;;
19554;SDS011;9924;50.828;6.440;2024-01-15T07:34:45;34.23;;;14.03;;
19554;SDS011;9924;50.828;6.440;2024-01-15T07:37:11;31.20;;;13.10;;
19554;SDS011;9924;50.828;6.440;2024-01-15T07:39:36;34.67;;;13.73;;
19554;SDS011;9924;50.828;6.440;2024-01-15T07:42:03;30.73;;;13.63;;
19554;SDS011;9924;50.828;6.440;2024-01-15T07:44:28;32.17;;;14.80;;
19554;SDS011;9924;50.828;6.440;2024-01-15T07:46:54;32.80;;;13.20;;
19554;SDS011;9924;50.828;6.440;2024-01-15T07:49:20;40.30;;;15.60;;
19554;SDS011;9924;50.828;6.440;2024-01-15T07:51:45;34.73;;;13.60;;
19554;SDS011;9924;50.828;6.440;2024-01-15T07:54:11;34.33;;;13.70;;
19554;SDS011;9924;50.828;6.440;2024-01-15T07:59:22;34.17;;;14.43;;
19554;SDS011;9924;50.828;6.440;2024-01-15T08:01:48;28.40;;;13.00;;
19554;SDS011;9924;50.828;6.440;2024-01-15T08:04:14;25.60;;;12.10;;
19554;SDS011;9924;50.828;6.440;2024-01-15T08:06:40;24.33;;;11.00;;
19554;SDS011;9924;50.828;6.440;2024-01-15T08:09:05;24.70;;;12.27;;
19554;SDS011;9924;50.828;6.440;2024-01-15T08:11:31;26.27;;;11.80;;
19554;SDS011;9924;50.828;6.440;2024-01-15T08:13:57;30.33;;;10.63;;
19554;SDS011;9924;50.828;6.440;2024-01-15T08:16:22;26.47;;;11.83;;
19554;SDS011;9924;50.828;6.440;2024-01-15T08:18:50;26.63;;;10.83;;
19554;SDS011;9924;50.828;6.440;2024-01-15T08:21:15;21.63;;;9.63;;
19554;SDS011;9924;50.828;6.440;2024-01-15T08:23:41;22.50;;;10.03;;
19554;SDS011;9924;50.828;6.440;2024-01-15T08:26:07;25.43;;;9.93;;
19554;SDS011;9924;50.828;6.440;2024-01-15T08:28:34;19.77;;;8.53;;
19554;SDS011;9924;50.828;6.440;2024-01-15T08:30:59;24.27;;;9.00;;
19554;SDS011;9924;50.828;6.440;2024-01-15T08:33:26;15.07;;;6.97;;
19554;SDS011;9924;50.828;6.440;2024-01-15T08:35:51;19.43;;;8.30;;
19554;SDS011;9924;50.828;6.440;2024-01-15T08:38:18;21.23;;;8.57;;
19554;SDS011;9924;50.828;6.440;2024-01-15T08:40:44;18.23;;;7.70;;
19554;SDS011;9924;50.828;6.440;2024-01-15T08:43:10;19.70;;;8.23;;
19554;SDS011;9924;50.828;6.440;2024-01-15T08:45:35;18.83;;;8.83;;
19554;SDS011;9924;50.828;6.440;2024-01-15T08:48:04;15.93;;;8.10;;
19554;SDS011;9924;50.828;6.440;2024-01-15T08:50:30;14.70;;;7.53;;
19554;SDS011;9924;50.828;6.440;2024-01-15T08:52:57;20.80;;;8.27;;
19554;SDS011;9924;50.828;6.440;2024-01-15T08:55:23;18.03;;;7.57;;
19554;SDS011;9924;50.828;6.440;2024-01-15T08:57:49;16.77;;;8.47;;
19554;SDS011;9924;50.828;6.440;2024-01-15T09:00:15;13.13;;;7.30;;
19554;SDS011;9924;50.828;6.440;2024-01-15T09:02:41;16.03;;;7.73;;
19554;SDS011;9924;50.828;6.440;2024-01-15T09:05:07;15.77;;;6.40;;
19554;SDS011;9924;50.828;6.440;2024-01-15T09:07:33;20.23;;;8.07;;
19554;SDS011;9924;50.828;6.440;2024-01-15T09:09:59;17.07;;;7.33;;
19554;SDS011;9924;50.828;6.440;2024-01-15T09:12:27;18.07;;;7.10;;
19554;SDS011;9924;50.828;6.440;2024-01-15T09:14:54;18.07;;;7.20;;
19554;SDS011;9924;50.828;6.440;2024-01-15T09:17:20;12.60;;;7.00;;
19554;SDS011;9924;50.828;6.440;2024-01-15T09:19:49;12.40;;;6.97;;
19554;SDS011;9924;50.828;6.440;2024-01-15T09:22:15;14.70;;;7.23;;
19554;SDS011;9924;50.828;6.440;2024-01-15T09:24:44;11.53;;;6.90;;
19554;SDS011;9924;50.828;6.440;2024-01-15T09:27:10;12.97;;;6.80;;
19554;SDS011;9924;50.828;6.440;2024-01-15T09:29:36;15.03;;;6.83;;
19554;SDS011;9924;50.828;6.440;2024-01-15T09:32:05;18.30;;;7.67;;
19554;SDS011;9924;50.828;6.440;2024-01-15T09:34:31;14.30;;;7.00;;
19554;SDS011;9924;50.828;6.440;2024-01-15T09:36:57;17.03;;;8.00;;
19554;SDS011;9924;50.828;6.440;2024-01-15T09:39:22;17.73;;;7.87;;
19554;SDS011;9924;50.828;6.440;2024-01-15T09:41:49;24.83;;;8.87;;
19554;SDS011;9924;50.828;6.440;2024-01-15T09:44:15;17.23;;;9.57;;
19554;SDS011;9924;50.828;6.440;2024-01-15T09:46:42;19.73;;;9.03;;
19554;SDS011;9924;50.828;6.440;2024-01-15T09:49:09;14.20;;;9.03;;
19554;SDS011;9924;50.828;6.440;2024-01-15T09:51:35;17.17;;;10.50;;
19554;SDS011;9924;50.828;6.440;2024-01-15T09:54:02;19.60;;;8.63;;
19554;SDS011;9924;50.828;6.440;2024-01-15T09:56:29;17.30;;;7.67;;
19554;SDS011;9924;50.828;6.440;2024-01-15T09:58:56;12.03;;;6.83;;
19554;SDS011;9924;50.828;6.440;2024-01-15T10:01:22;12.50;;;7.00;;
19554;SDS011;9924;50.828;6.440;2024-01-15T10:03:49;18.53;;;8.23;;
19554;SDS011;9924;50.828;6.440;2024-01-15T10:06:15;12.47;;;7.20;;
19554;SDS011;9924;50.828;6.440;2024-01-15T10:08:49;11.13;;;6.40;;
19554;SDS011;9924;50.828;6.440;2024-01-15T10:11:16;19.03;;;7.73;;
19554;SDS011;9924;50.828;6.440;2024-01-15T10:13:44;12.73;;;6.57;;
19554;SDS011;9924;50.828;6.440;2024-01-15T10:16:09;13.60;;;6.33;;
19554;SDS011;9924;50.828;6.440;2024-01-15T10:18:36;14.33;;;7.23;;
19554;SDS011;9924;50.828;6.440;2024-01-15T10:21:04;19.13;;;7.57;;
19554;SDS011;9924;50.828;6.440;2024-01-15T10:23:32;15.03;;;8.77;;
19554;SDS011;9924;50.828;6.440;2024-01-15T10:25:57;13.80;;;8.23;;
19554;SDS011;9924;50.828;6.440;2024-01-15T10:28:25;16.70;;;8.20;;
19554;SDS011;9924;50.828;6.440;2024-01-15T10:30:52;14.90;;;7.83;;
19554;SDS011;9924;50.828;6.440;2024-01-15T10:33:23;17.63;;;8.23;;
19554;SDS011;9924;50.828;6.440;2024-01-15T10:35:53;17.20;;;8.87;;
19554;SDS011;9924;50.828;6.440;2024-01-15T10:38:21;18.83;;;8.77;;
19554;SDS011;9924;50.828;6.440;2024-01-15T10:40:56;17.00;;;7.57;;
19554;SDS011;9924;50.828;6.440;2024-01-15T10:43:22;19.93;;;8.30;;
19554;SDS011;9924;50.828;6.440;2024-01-15T10:45:48;16.90;;;7.53;;
19554;SDS011;9924;50.828;6.440;2024-01-15T10:48:18;21.17;;;8.87;;
19554;SDS011;9924;50.828;6.440;2024-01-15T10:50:45;17.00;;;8.90;;
19554;SDS011;9924;50.828;6.440;2024-01-15T10:53:12;15.97;;;8.33;;
19554;SDS011;9924;50.828;6.440;2024-01-15T10:55:40;17.83;;;8.20;;
19554;SDS011;9924;50.828;6.440;2024-01-15T10:58:07;22.57;;;9.07;;
19554;SDS011;9924;50.828;6.440;2024-01-15T11:00:33;20.43;;;8.67;;
19554;SDS011;9924;50.828;6.440;2024-01-15T11:03:03;16.83;;;8.33;;
19554;SDS011;9924;50.828;6.440;2024-01-15T11:05:42;17.53;;;7.57;;
19554;SDS011;9924;50.828;6.440;2024-01-15T11:08:08;18.67;;;8.27;;
19554;SDS011;9924;50.828;6.440;2024-01-15T11:10:38;18.77;;;8.50;;
19554;SDS011;9924;50.828;6.440;2024-01-15T11:13:04;23.77;;;8.67;;
19554;SDS011;9924;50.828;6.440;2024-01-15T11:15:30;30.30;;;9.13;;
19554;SDS011;9924;50.828;6.440;2024-01-15T11:17:59;34.53;;;10.27;;
19554;SDS011;9924;50.828;6.440;2024-01-15T11:20:26;22.63;;;9.23;;
19554;SDS011;9924;50.828;6.440;2024-01-15T11:22:52;26.60;;;9.30;;
19554;SDS011;9924;50.828;6.440;2024-01-15T11:25:18;19.47;;;7.50;;
19554;SDS011;9924;50.828;6.440;2024-01-15T11:27:45;18.67;;;6.97;;
19554;SDS011;9924;50.828;6.440;2024-01-15T11:30:13;24.17;;;7.10;;
19554;SDS011;9924;50.828;6.440;2024-01-15T11:32:39;11.70;;;5.80;;
19554;SDS011;9924;50.828;6.440;2024-01-15T11:35:11;15.80;;;6.10;;
19554;SDS011;9924;50.828;6.440;2024-01-15T11:40:58;9.67;;;4.60;;
19554;SDS011;9924;50.828;6.440;2024-01-15T11:43:07;11.77;;;5.30;;
19554;SDS011;9924;50.828;6.440;2024-01-15T11:45:34;9.60;;;4.80;;
19554;SDS011;9924;50.828;6.440;2024-01-15T11:50:39;7.57;;;3.93;;
19554;SDS011;9924;50.828;6.440;2024-01-15T11:53:08;8.07;;;4.67;;
19554;SDS011;9924;50.828;6.440;2024-01-15T11:55:52;8.57;;;4.43;;
19554;SDS011;9924;50.828;6.440;2024-01-15T11:58:23;6.33;;;4.17;;
19554;SDS011;9924;50.828;6.440;2024-01-15T12:00:49;9.90;;;3.80;;
19554;SDS011;9924;50.828;6.440;2024-01-15T12:03:16;7.80;;;3.97;;
19554;SDS011;9924;50.828;6.440;2024-01-15T12:05:42;7.67;;;4.80;;
19554;SDS011;9924;50.828;6.440;2024-01-15T12:08:08;10.87;;;4.90;;
19554;SDS011;9924;50.828;6.440;2024-01-15T12:10:36;8.87;;;4.70;;
19554;SDS011;9924;50.828;6.440;2024-01-15T12:13:10;7.27;;;3.63;;
19554;SDS011;9924;50.828;6.440;2024-01-15T12:15:40;9.73;;;2.90;;
19554;SDS011;9924;50.828;6.440;2024-01-15T12:18:08;4.87;;;2.50;;
19554;SDS011;9924;50.828;6.440;2024-01-15T12:20:35;6.50;;;3.20;;
19554;SDS011;9924;50.828;6.440;2024-01-15T12:23:01;7.77;;;3.00;;
19554;SDS011;9924;50.828;6.440;2024-01-15T12:25:31;8.90;;;2.97;;
19554;SDS011;9924;50.828;6.440;2024-01-15T12:27:57;9.27;;;3.37;;
19554;SDS011;9924;50.828;6.440;2024-01-15T12:30:25;6.47;;;2.97;;
19554;SDS011;9924;50.828;6.440;2024-01-15T12:32:52;13.57;;;3.87;;
19554;SDS011;9924;50.828;6.440;2024-01-15T12:35:18;11.30;;;3.70;;
19554;SDS011;9924;50.828;6.440;2024-01-15T12:37:43;9.33;;;4.07;;
19554;SDS011;9924;50.828;6.440;2024-01-15T12:40:12;8.20;;;3.63;;
19554;SDS011;9924;50.828;6.440;2024-01-15T12:42:39;8.00;;;2.97;;
19554;SDS011;9924;50.828;6.440;2024-01-15T12:45:05;11.30;;;3.47;;
19554;SDS011;9924;50.828;6.440;2024-01-15T12:47:32;7.07;;;3.07;;
19554;SDS011;9924;50.828;6.440;2024-01-15T12:49:58;5.40;;;3.17;;
19554;SDS011;9924;50.828;6.440;2024-01-15T12:52:27;12.33;;;3.23;;
19554;SDS011;9924;50.828;6.440;2024-01-15T12:54:54;8.67;;;3.60;;
19554;SDS011;9924;50.828;6.440;2024-01-15T12:57:20;9.70;;;3.43;;
19554;SDS011;9924;50.828;6.440;2024-01-15T12:59:45;9.30;;;3.13;;
19554;SDS011;9924;50.828;6.440;2024-01-15T13:02:12;10.10;;;3.80;;
19554;SDS011;9924;50.828;6.440;2024-01-15T13:04:38;7.50;;;3.30;;
19554;SDS011;9924;50.828;6.440;2024-01-15T13:07:05;8.47;;;3.97;;
19554;SDS011;9924;50.828;6.440;2024-01-15T13:09:31;6.43;;;3.47;;
19554;SDS011;9924;50.828;6.440;2024-01-15T13:11:57;16.23;;;3.90;;
19554;SDS011;9924;50.828;6.440;2024-01-15T13:14:23;9.10;;;3.80;;
19554;SDS011;9924;50.828;6.440;2024-01-15T13:16:49;12.10;;;3.87;;
19554;SDS011;9924;50.828;6.440;2024-01-15T13:19:14;7.73;;;4.30;;
19554;SDS011;9924;50.828;6.440;2024-01-15T13:21:40;7.87;;;4.07;;
19554;SDS011;9924;50.828;6.440;2024-01-15T13:24:06;12.30;;;4.20;;
19554;SDS011;9924;50.828;6.440;2024-01-15T13:26:33;9.23;;;3.80;;
19554;SDS011;9924;50.828;6.440;2024-01-15T13:29:02;4.53;;;3.50;;
19554;SDS011;9924;50.828;6.440;2024-01-15T13:31:29;6.93;;;3.23;;
19554;SDS011;9924;50.828;6.440;2024-01-15T13:33:57;7.40;;;2.90;;
19554;SDS011;9924;50.828;6.440;2024-01-15T13:36:24;9.67;;;3.73;;
19554;SDS011;9924;50.828;6.440;2024-01-15T13:38:50;6.97;;;3.53;;
19554;SDS011;9924;50.828;6.440;2024-01-15T13:41:16;5.13;;;3.47;;
19554;SDS011;9924;50.828;6.440;2024-01-15T13:43:48;7.13;;;3.47;;
19554;SDS011;9924;50.828;6.440;2024-01-15T13:46:15;8.57;;;3.63;;
19554;SDS011;9924;50.828;6.440;2024-01-15T13:48:42;7.37;;;3.33;;
19554;SDS011;9924;50.828;6.440;2024-01-15T13:51:08;6.13;;;3.40;;
19554;SDS011;9924;50.828;6.440;2024-01-15T13:53:33;7.00;;;3.20;;
19554;SDS011;9924;50.828;6.440;2024-01-15T13:55:59;15.43;;;4.50;;
19554;SDS011;9924;50.828;6.440;2024-01-15T13:58:25;7.00;;;2.73;;
19554;SDS011;9924;50.828;6.440;2024-01-15T14:00:51;4.63;;;2.73;;
19554;SDS011;9924;50.828;6.440;2024-01-15T14:03:17;8.80;;;4.27;;
19554;SDS011;9924;50.828;6.440;2024-01-15T14:05:44;10.87;;;5.83;;
19554;SDS011;9924;50.828;6.440;2024-01-15T14:08:10;6.80;;;4.53;;
19554;SDS011;9924;50.828;6.440;2024-01-15T14:10:35;10.70;;;5.00;;
19554;SDS011;9924;50.828;6.440;2024-01-15T14:13:02;10.43;;;4.27;;
19554;SDS011;9924;50.828;6.440;2024-01-15T14:15:28;8.40;;;4.53;;
19554;SDS011;9924;50.828;6.440;2024-01-15T14:17:54;6.13;;;4.80;;
19554;SDS011;9924;50.828;6.440;2024-01-15T14:20:20;7.37;;;4.50;;
19554;SDS011;9924;50.828;6.440;2024-01-15T14:22:45;6.60;;;4.40;;
19554;SDS011;9924;50.828;6.440;2024-01-15T14:25:11;6.57;;;4.33;;
19554;SDS011;9924;50.828;6.440;2024-01-15T14:27:37;3.87;;;3.00;;
19554;SDS011;9924;50.828;6.440;2024-01-15T14:30:02;9.43;;;4.20;;
19554;SDS011;9924;50.828;6.440;2024-01-15T14:32:30;8.57;;;4.00;;
19554;SDS011;9924;50.828;6.440;2024-01-15T14:34:56;9.37;;;4.57;;
19554;SDS011;9924;50.828;6.440;2024-01-15T14:37:22;4.60;;;3.30;;
19554;SDS011;9924;50.828;6.440;2024-01-15T14:39:47;7.83;;;3.63;;
19554;SDS011;9924;50.828;6.440;2024-01-15T14:42:13;4.10;;;3.27;;
19554;SDS011;9924;50.828;6.440;2024-01-15T14:44:38;6.97;;;3.33;;
19554;SDS011;9924;50.828;6.440;2024-01-15T14:47:06;7.07;;;4.03;;